createdAt,value
2018-06-20T00:47:21.805Z,17.51
2018-06-20T00:48:30.691Z,17.44
2018-06-20T00:49:39.838Z,17.51
2018-06-20T00:50:48.716Z,17.43
2018-06-20T00:51:57.590Z,17.48
2018-06-20T00:53:06.472Z,17.41
2018-06-20T00:54:15.355Z,17.41
2018-06-20T00:55:24.234Z,17.38
2018-06-20T00:56:33.106Z,17.36
2018-06-20T00:57:41.970Z,17.38
2018-06-20T00:58:50.891Z,17.4
2018-06-20T01:00:00.301Z,17.37
2018-06-20T01:01:09.161Z,17.48
2018-06-20T01:02:18.021Z,17.36
2018-06-20T01:03:26.883Z,17.37
2018-06-20T01:04:35.794Z,17.41
2018-06-20T01:05:44.656Z,17.34
2018-06-20T01:06:53.514Z,17.38
2018-06-20T01:08:02.378Z,17.38
2018-06-20T01:09:11.243Z,17.4
2018-06-20T01:10:20.103Z,17.36
2018-06-20T01:11:29.345Z,17.3
2018-06-20T01:12:39.120Z,17.3
2018-06-20T01:13:47.981Z,17.38
2018-06-20T01:14:56.943Z,17.33
2018-06-20T01:16:05.851Z,17.34
2018-06-20T01:17:14.717Z,17.3
2018-06-20T01:18:23.870Z,17.31
2018-06-20T01:19:32.731Z,17.3
2018-06-20T01:20:41.592Z,17.28
2018-06-20T01:21:50.601Z,17.3
2018-06-20T01:22:59.743Z,17.26
2018-06-20T01:24:08.607Z,17.3
2018-06-20T01:25:17.470Z,17.28
2018-06-20T01:26:26.335Z,17.26
2018-06-20T01:27:35.246Z,17.21
2018-06-20T01:28:44.109Z,17.25
2018-06-20T01:29:52.966Z,17.19
2018-06-20T01:31:01.828Z,17.18
2018-06-20T01:32:10.687Z,17.18
2018-06-20T01:33:19.546Z,17.16
2018-06-20T01:34:28.684Z,17.25
2018-06-20T01:35:37.546Z,17.15
2018-06-20T01:36:46.688Z,17.15
2018-06-20T01:37:55.548Z,17.19
2018-06-20T01:39:04.786Z,17.21
2018-06-20T01:40:13.647Z,17.19
2018-06-20T01:41:22.783Z,17.19
2018-06-20T01:42:31.654Z,17.19
2018-06-20T01:43:40.516Z,17.19
2018-06-20T01:44:49.625Z,17.16
2018-06-20T01:45:58.486Z,17.18
2018-06-20T01:47:07.354Z,17.16
2018-06-20T01:48:16.492Z,17.04
2018-06-20T01:49:25.363Z,17.12
2018-06-20T01:50:34.316Z,17.08
2018-06-20T01:51:43.464Z,17.14
2018-06-20T01:52:52.604Z,17.06
2018-06-20T01:54:01.747Z,17.11
2018-06-20T01:55:10.609Z,17.07
2018-06-20T01:56:19.893Z,17.08
2018-06-20T01:57:28.755Z,17.07
2018-06-20T01:58:37.615Z,16.98
2018-06-20T01:59:46.764Z,16.91
2018-06-20T02:00:55.623Z,17.11
2018-06-20T02:02:04.537Z,17.06
2018-06-20T02:03:13.674Z,17.08
2018-06-20T02:04:22.536Z,16.96
2018-06-20T02:05:31.401Z,16.96
2018-06-20T02:06:40.538Z,17.16
2018-06-20T02:07:49.448Z,17.04
2018-06-20T02:08:58.316Z,17.08
2018-06-20T02:10:07.456Z,17.07
2018-06-20T02:11:16.317Z,17.07
2018-06-20T02:12:25.182Z,17.08
2018-06-20T02:13:34.051Z,17
2018-06-20T02:14:42.912Z,17.04
2018-06-20T02:15:51.774Z,17.08
2018-06-20T02:17:00.637Z,17.03
2018-06-20T02:18:09.776Z,17.04
2018-06-20T02:19:18.987Z,17.06
2018-06-20T02:20:28.124Z,17.08
2018-06-20T02:21:36.990Z,17.12
2018-06-20T02:22:45.846Z,17.08
2018-06-20T02:23:54.708Z,17.16
2018-06-20T02:25:04.100Z,16.93
2018-06-20T02:26:12.961Z,17.14
2018-06-20T02:27:21.822Z,16.98
2018-06-20T02:28:30.685Z,17.06
2018-06-20T02:29:39.543Z,17.04
2018-06-20T02:30:48.508Z,17
2018-06-20T02:31:57.369Z,16.98
2018-06-20T02:33:06.512Z,17.01
2018-06-20T02:34:15.647Z,16.96
2018-06-20T02:35:24.519Z,16.94
2018-06-20T02:36:33.700Z,16.93
2018-06-20T02:37:42.500Z,17
2018-06-20T02:38:51.922Z,16.88
2018-06-20T02:40:01.060Z,16.88
2018-06-20T02:41:10.195Z,16.86
2018-06-20T02:42:19.435Z,16.93
2018-06-20T02:43:28.858Z,16.83
2018-06-20T02:44:37.998Z,16.88
2018-06-20T02:45:46.864Z,16.79
2018-06-20T02:46:56.284Z,16.83
2018-06-20T02:48:05.144Z,16.83
2018-06-20T02:49:14.565Z,16.82
2018-06-20T02:50:23.429Z,16.79
2018-06-20T02:51:32.575Z,16.76
2018-06-20T02:52:41.501Z,16.86
2018-06-20T02:53:50.997Z,16.75
2018-06-20T02:55:00.410Z,16.82
2018-06-20T02:56:09.832Z,16.76
2018-06-20T02:57:19.248Z,16.79
2018-06-20T02:58:28.112Z,16.71
2018-06-20T02:59:37.352Z,16.75
2018-06-20T03:00:46.499Z,16.71
2018-06-20T03:01:55.637Z,16.71
2018-06-20T03:03:04.497Z,16.73
2018-06-20T03:04:13.636Z,16.68
2018-06-20T03:05:23.151Z,16.73
2018-06-20T03:06:32.304Z,16.71
2018-06-20T03:07:41.445Z,16.63
2018-06-20T03:08:50.868Z,16.66
2018-06-20T03:10:00.024Z,16.73
2018-06-20T03:11:09.608Z,16.67
2018-06-20T03:12:18.748Z,16.58
2018-06-20T03:13:27.611Z,16.58
2018-06-20T03:14:36.759Z,16.56
2018-06-20T03:15:45.903Z,16.6
2018-06-20T03:16:54.764Z,16.61
2018-06-20T03:18:03.625Z,16.57
2018-06-20T03:19:12.489Z,16.63
2018-06-20T03:20:21.349Z,16.57
2018-06-20T03:21:30.487Z,16.57
2018-06-20T03:22:39.629Z,16.66
2018-06-20T03:23:48.507Z,16.53
2018-06-20T03:24:57.369Z,16.52
2018-06-20T03:26:06.507Z,16.56
2018-06-20T03:27:15.388Z,16.67
2018-06-20T03:28:24.702Z,16.48
2018-06-20T03:29:33.842Z,16.49
2018-06-20T03:30:43.267Z,16.48
2018-06-20T03:31:52.682Z,16.48
2018-06-20T03:33:01.546Z,16.5
2018-06-20T03:34:10.407Z,16.6
2018-06-20T03:35:19.269Z,16.46
2018-06-20T03:36:28.130Z,16.63
2018-06-20T03:37:36.993Z,16.57
2018-06-20T03:38:45.852Z,16.5
2018-06-20T03:39:54.815Z,16.61
2018-06-20T03:41:03.676Z,16.63
2018-06-20T03:42:12.534Z,16.48
2018-06-20T03:43:21.395Z,16.61
2018-06-20T03:44:30.257Z,16.43
2018-06-20T03:45:39.119Z,16.45
2018-06-20T03:46:47.981Z,16.48
2018-06-20T03:47:56.839Z,16.5
2018-06-20T03:49:05.981Z,16.48
2018-06-20T03:50:14.844Z,16.45
2018-06-20T03:51:24.055Z,16.46
2018-06-20T03:52:32.916Z,16.49
2018-06-20T03:53:41.777Z,16.49
2018-06-20T03:54:50.638Z,16.53
2018-06-20T03:55:59.498Z,16.5
2018-06-20T03:57:08.810Z,16.49
2018-06-20T03:58:17.947Z,16.48
2018-06-20T03:59:26.807Z,16.46
2018-06-20T04:00:35.669Z,16.49
2018-06-20T04:01:44.529Z,16.43
2018-06-20T04:02:53.390Z,16.5
2018-06-20T04:04:02.263Z,16.49
2018-06-20T04:05:11.125Z,16.39
2018-06-20T04:06:19.990Z,16.5
2018-06-20T04:07:28.849Z,16.43
2018-06-20T04:08:37.810Z,16.5
2018-06-20T04:09:46.952Z,16.48
2018-06-20T04:10:55.810Z,16.58
2018-06-20T04:12:04.671Z,16.58
2018-06-20T04:13:13.533Z,16.56
2018-06-20T04:14:22.544Z,16.66
2018-06-20T04:15:31.406Z,16.58
2018-06-20T04:16:40.546Z,16.56
2018-06-20T04:17:49.407Z,16.6
2018-06-20T04:18:58.548Z,16.58
2018-06-20T04:20:07.458Z,16.61
2018-06-20T04:21:16.321Z,16.66
2018-06-20T04:22:25.181Z,16.61
2018-06-20T04:23:34.042Z,16.64
2018-06-20T04:24:42.905Z,16.68
2018-06-20T04:25:51.768Z,16.73
2018-06-20T04:27:00.907Z,16.7
2018-06-20T04:28:09.773Z,16.67
2018-06-20T04:29:18.911Z,16.71
2018-06-20T04:30:27.774Z,16.76
2018-06-20T04:31:37.012Z,16.73
2018-06-20T04:32:46.149Z,16.81
2018-06-20T04:33:55.011Z,16.81
2018-06-20T04:35:04.156Z,16.86
2018-06-20T04:36:13.579Z,16.78
2018-06-20T04:37:22.797Z,16.82
2018-06-20T04:38:32.221Z,16.91
2018-06-20T04:39:41.081Z,16.83
2018-06-20T04:40:49.948Z,16.81
2018-06-20T04:41:58.810Z,16.85
2018-06-20T04:43:07.768Z,16.89
2018-06-20T04:44:16.634Z,16.91
2018-06-20T04:45:25.498Z,16.94
2018-06-20T04:46:34.637Z,16.94
2018-06-20T04:47:43.504Z,17
2018-06-20T04:48:52.644Z,16.98
2018-06-20T04:50:01.505Z,17.08
2018-06-20T04:51:10.649Z,17.12
2018-06-20T04:52:19.510Z,17.08
2018-06-20T04:53:28.369Z,17.14
2018-06-20T04:54:37.576Z,17.11
2018-06-20T04:55:46.422Z,17.16
2018-06-20T04:56:55.280Z,17.07
2018-06-20T04:58:04.142Z,17.19
2018-06-20T04:59:13.003Z,17.18
2018-06-20T05:00:21.915Z,17.25
2018-06-20T05:01:30.776Z,17.31
2018-06-20T05:02:39.639Z,17.33
2018-06-20T05:03:48.500Z,17.31
2018-06-20T05:04:57.648Z,17.33
2018-06-20T05:06:06.559Z,17.34
2018-06-20T05:07:15.421Z,17.33
2018-06-20T05:08:24.281Z,17.37
2018-06-20T05:09:33.419Z,17.41
2018-06-20T05:10:42.559Z,17.52
2018-06-20T05:11:51.625Z,17.48
2018-06-20T05:13:00.479Z,17.44
2018-06-20T05:14:09.342Z,17.48
2018-06-20T05:15:18.764Z,17.56
2018-06-20T05:16:27.623Z,17.52
2018-06-20T05:17:36.862Z,17.68
2018-06-20T05:18:46.000Z,17.68
2018-06-20T05:19:54.864Z,17.75
2018-06-20T05:21:03.726Z,17.77
2018-06-20T05:22:12.587Z,17.79
2018-06-20T05:23:21.497Z,17.77
2018-06-20T05:24:30.366Z,17.87
2018-06-20T05:25:39.506Z,17.9
2018-06-20T05:26:48.644Z,17.99
2018-06-20T05:27:57.506Z,18
2018-06-20T05:29:06.693Z,17.99
2018-06-20T05:30:15.557Z,18.1
2018-06-20T05:31:24.419Z,18.11
2018-06-20T05:32:33.287Z,18.08
2018-06-20T05:33:42.704Z,18.05
2018-06-20T05:34:51.618Z,18.12
2018-06-20T05:36:00.480Z,18.21
2018-06-20T05:37:09.345Z,18.21
2018-06-20T05:38:18.208Z,18.2
2018-06-20T05:39:27.351Z,18.3
2018-06-20T05:40:36.366Z,18.35
2018-06-20T05:41:45.366Z,18.36
2018-06-20T05:42:54.229Z,18.36
2018-06-20T05:44:03.092Z,18.3
2018-06-20T05:45:11.954Z,18.29
2018-06-20T05:46:20.968Z,18.27
2018-06-20T05:47:30.110Z,18.45
2018-06-20T05:48:38.970Z,18.55
2018-06-20T05:49:47.836Z,18.62
2018-06-20T05:50:56.731Z,18.63
2018-06-20T05:52:06.027Z,18.65
2018-06-20T05:53:14.895Z,18.75
2018-06-20T05:54:24.035Z,18.81
2018-06-20T05:55:32.902Z,18.8
2018-06-20T05:56:41.767Z,18.85
2018-06-20T05:57:51.656Z,18.87
2018-06-20T05:59:01.174Z,18.84
2018-06-20T06:00:10.039Z,18.84
2018-06-20T06:01:18.946Z,18.92
2018-06-20T06:02:27.765Z,18.95
2018-06-20T06:03:36.784Z,18.84
2018-06-20T06:04:45.645Z,18.94
2018-06-20T06:05:54.511Z,18.95
2018-06-20T06:07:03.373Z,19.08
2018-06-20T06:08:12.237Z,19.04
2018-06-20T06:09:21.148Z,19.07
2018-06-20T06:10:30.568Z,19.07
2018-06-20T06:11:39.433Z,19.06
2018-06-20T06:12:48.569Z,19.08
2018-06-20T06:13:57.439Z,19.08
2018-06-20T06:15:06.651Z,19.29
2018-06-20T06:16:15.536Z,19.23
2018-06-20T06:17:24.380Z,19.43
2018-06-20T06:18:33.244Z,19.47
2018-06-20T06:19:42.108Z,19.51
2018-06-20T06:20:51.118Z,19.63
2018-06-20T06:21:59.987Z,19.61
2018-06-20T06:23:09.127Z,19.68
2018-06-20T06:24:18.265Z,19.77
2018-06-20T06:25:27.128Z,19.73
2018-06-20T06:26:36.194Z,19.77
2018-06-20T06:27:45.332Z,19.86
2018-06-20T06:28:54.197Z,19.98
2018-06-20T06:30:03.061Z,19.94
2018-06-20T06:31:11.927Z,19.99
2018-06-20T06:32:21.140Z,20.1
2018-06-20T06:33:30.007Z,20.05
2018-06-20T06:34:39.145Z,20.11
2018-06-20T06:35:48.010Z,19.96
2018-06-20T06:36:56.873Z,20.06
2018-06-20T06:38:05.886Z,20.17
2018-06-20T06:39:14.749Z,20.17
2018-06-20T06:40:23.614Z,20.18
2018-06-20T06:41:32.481Z,20.17
2018-06-20T06:42:41.355Z,20.13
2018-06-20T06:43:50.358Z,20.14
2018-06-20T06:44:59.560Z,20.17
2018-06-20T06:46:08.425Z,20.17
2018-06-20T06:47:17.290Z,20.24
2018-06-20T06:48:26.153Z,20.28
2018-06-20T06:49:35.482Z,20.23
2018-06-20T06:50:44.749Z,20.33
2018-06-20T06:51:53.886Z,20.24
2018-06-20T06:53:02.752Z,20.31
2018-06-20T06:54:11.615Z,20.29
2018-06-20T06:55:20.907Z,20.31
2018-06-20T06:56:29.767Z,20.32
2018-06-20T06:57:38.635Z,20.36
2018-06-20T06:58:47.498Z,20.35
2018-06-20T06:59:56.364Z,20.33
2018-06-20T07:01:05.380Z,20.33
2018-06-20T07:02:14.242Z,20.38
2018-06-20T07:03:23.109Z,20.36
2018-06-20T07:04:32.225Z,20.5
2018-06-20T07:05:41.090Z,20.5
2018-06-20T07:06:50.061Z,20.55
2018-06-20T07:07:59.204Z,20.51
2018-06-20T07:09:08.063Z,20.51
2018-06-20T07:10:17.212Z,20.54
2018-06-20T07:11:26.078Z,20.59
2018-06-20T07:12:34.993Z,20.47
2018-06-20T07:13:43.856Z,20.59
2018-06-20T07:14:52.719Z,20.52
2018-06-20T07:16:01.593Z,20.64
2018-06-20T07:17:10.457Z,20.72
2018-06-20T07:18:19.371Z,20.66
2018-06-20T07:19:28.233Z,20.67
2018-06-20T07:20:37.099Z,20.66
2018-06-20T07:21:45.962Z,20.72
2018-06-20T07:22:54.825Z,20.76
2018-06-20T07:24:03.790Z,20.74
2018-06-20T07:25:12.656Z,20.84
2018-06-20T07:26:21.522Z,20.97
2018-06-20T07:27:30.389Z,20.95
2018-06-20T07:28:39.531Z,20.94
2018-06-20T07:29:48.456Z,21.01
2018-06-20T07:30:58.069Z,21.06
2018-06-20T07:32:07.207Z,21.07
2018-06-20T07:33:16.347Z,20.98
2018-06-20T07:34:25.239Z,21.14
2018-06-20T07:35:34.489Z,21.13
2018-06-20T07:36:44.188Z,21.14
2018-06-20T07:37:53.054Z,21.19
2018-06-20T07:39:02.195Z,21.22
2018-06-20T07:40:11.067Z,21.19
2018-06-20T07:41:20.258Z,21.31
2018-06-20T07:42:29.120Z,21.17
2018-06-20T07:43:37.983Z,21.16
2018-06-20T07:44:47.126Z,21.16
2018-06-20T07:45:55.991Z,21.22
2018-06-20T07:47:04.955Z,21.25
2018-06-20T07:48:13.820Z,21.27
2018-06-20T07:49:22.685Z,21.27
2018-06-20T07:50:31.547Z,21.19
2018-06-20T07:51:40.413Z,21.27
2018-06-20T07:52:49.707Z,21.31
2018-06-20T07:53:58.844Z,21.27
2018-06-20T07:55:07.987Z,21.28
2018-06-20T07:56:16.853Z,21.29
2018-06-20T07:57:26.278Z,21.28
2018-06-20T07:58:35.295Z,21.42
2018-06-20T07:59:44.157Z,21.31
2018-06-20T08:00:53.092Z,21.25
2018-06-20T08:02:02.404Z,21.29
2018-06-20T08:03:11.268Z,21.34
2018-06-20T08:04:20.182Z,21.34
2018-06-20T08:05:29.052Z,21.4
2018-06-20T08:06:38.196Z,21.37
2018-06-20T08:07:47.336Z,21.4
2018-06-20T08:08:56.200Z,21.37
2018-06-20T08:10:05.163Z,21.43
2018-06-20T08:11:14.029Z,21.42
2018-06-20T08:12:23.254Z,21.47
2018-06-20T08:13:32.335Z,21.61
2018-06-20T08:14:41.474Z,21.68
2018-06-20T08:15:50.438Z,21.71
2018-06-20T08:16:59.408Z,21.71
2018-06-20T08:18:08.311Z,21.65
2018-06-20T08:19:17.141Z,21.65
2018-06-20T08:20:26.007Z,21.65
2018-06-20T08:21:35.021Z,21.72
2018-06-20T08:22:43.891Z,21.64
2018-06-20T08:23:52.792Z,21.62
2018-06-20T08:25:01.618Z,21.56
2018-06-20T08:26:10.483Z,21.61
2018-06-20T08:27:19.401Z,21.64
2018-06-20T08:28:28.592Z,21.64
2018-06-20T08:29:37.736Z,21.65
2018-06-20T08:30:46.599Z,21.75
2018-06-20T08:31:55.464Z,21.72
2018-06-20T08:33:04.581Z,21.72
2018-06-20T08:34:13.720Z,21.8
2018-06-20T08:35:22.586Z,21.8
2018-06-20T08:36:31.454Z,21.86
2018-06-20T08:37:40.316Z,21.92
2018-06-20T08:38:49.231Z,22.07
2018-06-20T08:39:58.098Z,22.12
2018-06-20T08:41:07.294Z,22.22
2018-06-20T08:42:16.444Z,22.25
2018-06-20T08:43:25.864Z,22.27
2018-06-20T08:44:35.084Z,22.31
2018-06-20T08:45:44.225Z,22.3
2018-06-20T08:46:53.096Z,22.37
2018-06-20T08:48:01.961Z,22.45
2018-06-20T08:49:10.831Z,22.42
2018-06-20T08:50:19.845Z,22.39
2018-06-20T08:51:28.987Z,22.33
2018-06-20T08:52:37.851Z,22.3
2018-06-20T08:53:46.719Z,22.36
2018-06-20T08:54:55.859Z,22.4
2018-06-20T08:56:04.777Z,22.39
2018-06-20T08:57:13.688Z,22.4
2018-06-20T08:58:22.514Z,22.45
2018-06-20T08:59:31.381Z,22.49
2018-06-20T09:00:40.529Z,22.45
2018-06-20T09:01:49.398Z,22.4
2018-06-20T09:02:58.540Z,22.47
2018-06-20T09:04:07.403Z,22.49
2018-06-20T09:05:16.558Z,22.52
2018-06-20T09:06:25.703Z,22.54
2018-06-20T09:07:34.622Z,22.57
2018-06-20T09:08:43.521Z,22.55
2018-06-20T09:09:52.357Z,22.54
2018-06-20T09:11:01.498Z,22.55
2018-06-20T09:12:10.365Z,22.64
2018-06-20T09:13:19.283Z,22.64
2018-06-20T09:14:28.156Z,22.67
2018-06-20T09:15:37.015Z,22.65
2018-06-20T09:16:45.880Z,22.72
2018-06-20T09:17:55.027Z,22.76
2018-06-20T09:19:03.942Z,22.82
2018-06-20T09:20:12.813Z,22.77
2018-06-20T09:21:21.681Z,22.8
2018-06-20T09:22:30.825Z,22.79
2018-06-20T09:23:39.688Z,22.8
2018-06-20T09:24:48.717Z,22.94
2018-06-20T09:25:57.863Z,22.92
2018-06-20T09:27:07.012Z,22.94
2018-06-20T09:28:15.875Z,23.12
2018-06-20T09:29:24.740Z,23.23
2018-06-20T09:30:33.662Z,23.22
2018-06-20T09:31:42.526Z,23.2
2018-06-20T09:32:51.398Z,23.13
2018-06-20T09:34:00.264Z,23.2
2018-06-20T09:35:09.402Z,23.2
2018-06-20T09:36:18.469Z,23.31
2018-06-20T09:37:27.618Z,23.22
2018-06-20T09:38:36.538Z,23.17
2018-06-20T09:39:45.754Z,23.13
2018-06-20T09:40:54.984Z,23.02
2018-06-20T09:42:03.895Z,23
2018-06-20T09:43:12.763Z,23.07
2018-06-20T09:44:21.629Z,23.1
2018-06-20T09:45:30.493Z,23.15
2018-06-20T09:46:39.361Z,23.25
2018-06-20T09:47:48.280Z,23.22
2018-06-20T09:48:57.146Z,23.35
2018-06-20T09:50:06.014Z,23.38
2018-06-20T09:51:14.879Z,23.54
2018-06-20T09:52:23.749Z,23.63
2018-06-20T09:53:33.142Z,23.57
2018-06-20T09:54:42.010Z,23.61
2018-06-20T09:55:51.154Z,23.51
2018-06-20T09:57:00.297Z,23.53
2018-06-20T09:58:09.163Z,23.63
2018-06-20T09:59:18.319Z,23.6
2018-06-20T10:00:27.185Z,23.66
2018-06-20T10:01:36.598Z,23.61
2018-06-20T10:02:45.766Z,23.65
2018-06-20T10:03:54.680Z,23.57
2018-06-20T10:05:04.161Z,23.66
2018-06-20T10:06:13.028Z,23.78
2018-06-20T10:07:21.897Z,23.95
2018-06-20T10:08:30.766Z,24.08
2018-06-20T10:09:39.909Z,23.98
2018-06-20T10:10:49.132Z,24.05
2018-06-20T10:11:58.271Z,24.15
2018-06-20T10:13:07.212Z,24.2
2018-06-20T10:14:16.007Z,24.16
2018-06-20T10:15:25.146Z,24.1
2018-06-20T10:16:34.366Z,24.2
2018-06-20T10:17:43.235Z,24.16
2018-06-20T10:18:52.378Z,24.2
2018-06-20T10:20:01.245Z,24.12
2018-06-20T10:21:10.526Z,24.16
2018-06-20T10:22:19.795Z,24.15
2018-06-20T10:23:28.939Z,24.13
2018-06-20T10:24:37.809Z,23.97
2018-06-20T10:25:46.951Z,24.02
2018-06-20T10:26:55.822Z,23.98
2018-06-20T10:28:04.789Z,24.08
2018-06-20T10:29:13.654Z,24.12
2018-06-20T10:30:22.519Z,24.2
2018-06-20T10:31:31.669Z,24.18
2018-06-20T10:32:40.529Z,24.39
2018-06-20T10:33:49.441Z,24.43
2018-06-20T10:34:58.312Z,24.52
2018-06-20T10:36:07.181Z,24.57
2018-06-20T10:37:16.327Z,24.49
2018-06-20T10:38:25.195Z,24.46
2018-06-20T10:39:34.165Z,24.5
2018-06-20T10:40:43.033Z,24.55
2018-06-20T10:41:51.900Z,24.65
2018-06-20T10:43:00.769Z,24.65
2018-06-20T10:44:09.909Z,24.61
2018-06-20T10:45:18.782Z,24.57
2018-06-20T10:46:28.029Z,24.5
2018-06-20T10:47:36.896Z,24.43
2018-06-20T10:48:46.039Z,24.32
2018-06-20T10:49:54.919Z,24.31
2018-06-20T10:51:04.313Z,24.34
2018-06-20T10:52:13.463Z,24.46
2018-06-20T10:53:22.329Z,24.55
2018-06-20T10:54:31.213Z,24.58
2018-06-20T10:55:40.082Z,24.58
2018-06-20T10:56:49.048Z,24.78
2018-06-20T10:57:58.504Z,24.67
2018-06-20T10:59:07.399Z,24.81
2018-06-20T11:00:16.272Z,24.98
2018-06-20T11:01:25.417Z,24.99
2018-06-20T11:02:34.447Z,25.14
2018-06-20T11:03:43.377Z,25.24
2018-06-20T11:04:52.244Z,25.2
2018-06-20T11:06:01.110Z,25.23
2018-06-20T11:07:10.041Z,25.3
2018-06-20T11:08:18.981Z,25.09
2018-06-20T11:09:28.264Z,25.23
2018-06-20T11:10:37.193Z,25.24
2018-06-20T11:11:46.061Z,25.33
2018-06-20T11:12:54.929Z,25.42
2018-06-20T11:14:04.231Z,25.4
2018-06-20T11:15:13.156Z,25.43
2018-06-20T11:16:22.023Z,25.51
2018-06-20T11:17:31.168Z,25.52
2018-06-20T11:18:40.312Z,25.58
2018-06-20T11:19:49.407Z,25.39
2018-06-20T11:20:58.605Z,25.38
2018-06-20T11:22:07.487Z,25.24
2018-06-20T11:23:16.393Z,25.25
2018-06-20T11:24:25.608Z,25.35
2018-06-20T11:25:34.554Z,25.42
2018-06-20T11:26:43.418Z,25.55
2018-06-20T11:27:52.573Z,25.51
2018-06-20T11:29:01.439Z,25.5
2018-06-20T11:30:10.596Z,25.47
2018-06-20T11:31:19.616Z,25.58
2018-06-20T11:32:28.544Z,25.38
2018-06-20T11:33:37.421Z,25.52
2018-06-20T11:34:46.294Z,25.64
2018-06-20T11:35:55.460Z,25.83
2018-06-20T11:37:04.480Z,25.88
2018-06-20T11:38:13.626Z,25.83
2018-06-20T11:39:22.510Z,25.82
2018-06-20T11:40:31.363Z,25.83
2018-06-20T11:41:40.243Z,25.91
2018-06-20T11:42:49.164Z,26.05
2018-06-20T11:43:58.032Z,26.01
2018-06-20T11:45:06.900Z,26.12
2018-06-20T11:46:15.771Z,26.15
2018-06-20T11:47:24.640Z,26.29
2018-06-20T11:48:33.609Z,26.37
2018-06-20T11:49:42.474Z,26.43
2018-06-20T11:50:51.342Z,26.48
2018-06-20T11:52:00.213Z,26.4
2018-06-20T11:53:09.366Z,26.37
2018-06-20T11:54:18.438Z,26.29
2018-06-20T11:55:27.587Z,26.48
2018-06-20T11:56:36.451Z,26.51
2018-06-20T11:57:45.320Z,26.2
2018-06-20T11:58:54.468Z,26.26
2018-06-20T12:00:03.483Z,26.23
2018-06-20T12:01:12.351Z,26.18
2018-06-20T12:02:21.219Z,26.21
2018-06-20T12:03:30.086Z,26.2
2018-06-20T12:04:38.954Z,26.18
2018-06-20T12:05:47.977Z,26.18
2018-06-20T12:06:56.848Z,26.21
2018-06-20T12:08:06.007Z,26.35
2018-06-20T12:09:15.714Z,26.4
2018-06-20T12:10:24.588Z,26.69
2018-06-20T12:11:33.663Z,26.81
2018-06-20T12:12:42.533Z,26.84
2018-06-20T12:13:51.405Z,26.67
2018-06-20T12:15:00.277Z,26.84
2018-06-20T12:16:09.155Z,26.89
2018-06-20T12:17:18.173Z,26.84
2018-06-20T12:18:27.042Z,26.81
2018-06-20T12:19:35.912Z,26.94
2018-06-20T12:20:44.784Z,26.99
2018-06-20T12:21:53.670Z,27.19
2018-06-20T12:23:03.171Z,27.37
2018-06-20T12:24:12.041Z,27.57
2018-06-20T12:25:20.912Z,27.51
2018-06-20T12:26:29.784Z,27.69
2018-06-20T12:27:38.662Z,27.75
2018-06-20T12:28:47.691Z,27.92
2018-06-20T12:29:56.562Z,27.85
2018-06-20T12:31:05.717Z,27.72
2018-06-20T12:32:14.869Z,27.65
2018-06-20T12:33:23.744Z,27.78
2018-06-20T12:34:32.865Z,28.04
2018-06-20T12:35:41.742Z,27.97
2018-06-20T12:36:50.617Z,27.87
2018-06-20T12:37:59.492Z,27.79
2018-06-20T12:39:08.365Z,27.78
2018-06-20T12:40:17.588Z,27.74
2018-06-20T12:41:26.518Z,27.63
2018-06-20T12:42:35.337Z,27.62
2018-06-20T12:43:44.207Z,27.69
2018-06-20T12:44:53.643Z,27.79
2018-06-20T12:46:02.515Z,27.75
2018-06-20T12:47:11.387Z,27.66
2018-06-20T12:48:20.536Z,27.59
2018-06-20T12:49:30.121Z,27.43
2018-06-20T12:50:40.327Z,27.44
2018-06-20T12:51:49.835Z,27.5
2018-06-20T12:52:58.707Z,27.65
2018-06-20T12:54:07.582Z,27.67
2018-06-20T12:55:16.454Z,27.82
2018-06-20T12:56:25.880Z,27.67
2018-06-20T12:57:34.754Z,27.92
2018-06-20T12:58:43.628Z,28.02
2018-06-20T12:59:52.500Z,28.27
2018-06-20T13:01:01.658Z,28.37
2018-06-20T13:02:11.086Z,28.49
2018-06-20T13:03:19.963Z,28.34
2018-06-20T13:04:28.837Z,28.34
2018-06-20T13:05:37.713Z,28.51
2018-06-20T13:06:46.863Z,28.71
2018-06-20T13:07:55.742Z,28.58
2018-06-20T13:09:05.170Z,28.68
2018-06-20T13:10:14.043Z,28.31
2018-06-20T13:11:22.968Z,28.54
2018-06-20T13:12:31.842Z,28.56
2018-06-20T13:13:41.274Z,28.58
2018-06-20T13:14:50.150Z,28.39
2018-06-20T13:15:59.025Z,28.36
2018-06-20T13:17:08.535Z,28.37
2018-06-20T13:18:17.422Z,28.06
2018-06-20T13:19:26.302Z,28.04
2018-06-20T13:20:35.187Z,28.03
2018-06-20T13:21:44.071Z,28.14
2018-06-20T13:22:53.504Z,28.31
2018-06-20T13:24:02.379Z,28.18
2018-06-20T13:25:11.262Z,28.29
2018-06-20T13:26:20.148Z,28.64
2018-06-20T13:27:29.029Z,28.92
2018-06-20T13:28:37.966Z,29.12
2018-06-20T13:29:46.853Z,29.34
2018-06-20T13:30:56.017Z,29.45
2018-06-20T13:32:04.904Z,29.14
2018-06-20T13:33:13.787Z,29.18
2018-06-20T13:34:22.763Z,29.08
2018-06-20T13:35:31.638Z,28.96
2018-06-20T13:36:40.515Z,29
2018-06-20T13:37:49.390Z,28.88
2018-06-20T13:38:58.268Z,28.88
2018-06-20T13:40:07.295Z,29.14
2018-06-20T13:41:16.172Z,29.21
2018-06-20T13:42:25.048Z,29.24
2018-06-20T13:43:33.923Z,29.18
2018-06-20T13:44:42.795Z,29.28
2018-06-20T13:45:51.719Z,29.02
2018-06-20T13:47:00.879Z,29.06
2018-06-20T13:48:10.031Z,29.27
2018-06-20T13:49:19.187Z,29.53
2018-06-20T13:50:28.062Z,29.64
2018-06-20T13:51:37.042Z,29.65
2018-06-20T13:52:45.919Z,29.79
2018-06-20T13:53:55.079Z,29.79
2018-06-20T13:55:03.959Z,29.78
2018-06-20T13:56:12.889Z,29.92
2018-06-20T13:57:22.220Z,29.82
2018-06-20T13:58:31.097Z,30.02
2018-06-20T13:59:39.973Z,30.19
2018-06-20T14:00:48.850Z,30.16
2018-06-20T14:01:58.011Z,30.49
2018-06-20T14:03:07.235Z,30.35
2018-06-20T14:04:16.666Z,30.42
2018-06-20T14:05:25.544Z,30.57
2018-06-20T14:06:34.424Z,30.69
2018-06-20T14:07:43.300Z,30.75
2018-06-20T14:08:52.179Z,30.8
2018-06-20T14:10:01.058Z,31.02
2018-06-20T14:11:09.943Z,31.02
2018-06-20T14:12:18.825Z,30.91
2018-06-20T14:13:27.702Z,30.73
2018-06-20T14:14:36.682Z,30.64
2018-06-20T14:15:45.841Z,30.97
2018-06-20T14:16:54.722Z,31.01
2018-06-20T14:18:03.899Z,30.84
2018-06-20T14:19:12.775Z,30.73
2018-06-20T14:20:21.911Z,30.89
2018-06-20T14:21:31.417Z,30.67
2018-06-20T14:22:40.300Z,30.6
2018-06-20T14:23:49.499Z,30.55
2018-06-20T14:24:58.374Z,30.47
2018-06-20T14:26:07.688Z,30.51
2018-06-20T14:27:16.575Z,30.67
2018-06-20T14:28:25.728Z,30.88
2018-06-20T14:29:34.649Z,30.83
2018-06-20T14:30:43.798Z,31.09
2018-06-20T14:31:52.778Z,31.47
2018-06-20T14:33:01.677Z,31.7
2018-06-20T14:34:10.560Z,31.72
2018-06-20T14:35:19.444Z,31.86
2018-06-20T14:36:28.329Z,31.89
2018-06-20T14:37:37.410Z,31.85
2018-06-20T14:38:46.794Z,31.66
2018-06-20T14:39:56.328Z,31.72
2018-06-20T14:41:05.489Z,31.81
2018-06-20T14:42:14.402Z,31.99
2018-06-20T14:43:23.535Z,32.22
2018-06-20T14:44:32.700Z,32.08
2018-06-20T14:45:41.583Z,32.18
2018-06-20T14:46:50.485Z,32.15
2018-06-20T14:47:59.363Z,32.28
2018-06-20T14:49:08.572Z,32.21
2018-06-20T14:50:17.449Z,31.99
2018-06-20T14:51:26.335Z,32.01
2018-06-20T14:52:35.236Z,32.33
2018-06-20T14:53:44.401Z,32.23
2018-06-20T14:54:53.280Z,32.01
2018-06-20T14:56:02.721Z,31.89
2018-06-20T14:57:11.603Z,31.89
2018-06-20T14:58:20.486Z,32.01
2018-06-20T14:59:29.647Z,32.11
2018-06-20T15:00:38.906Z,32.22
2018-06-20T15:01:47.791Z,32.4
2018-06-20T15:02:56.942Z,32.72
2018-06-20T15:04:06.107Z,32.45
2018-06-20T15:05:14.985Z,32.6
2018-06-20T15:06:23.866Z,32.67
2018-06-20T15:07:33.993Z,32.43
2018-06-20T15:08:47.727Z,32.35
2018-06-20T15:09:57.685Z,32.52
2018-06-20T15:11:08.311Z,32.6
2018-06-20T15:12:17.328Z,32.59
2018-06-20T15:13:26.488Z,32.19
2018-06-20T15:14:35.370Z,31.96
2018-06-20T15:15:44.250Z,32.19
2018-06-20T15:16:53.410Z,32.4
2018-06-20T15:18:02.297Z,32.48
2018-06-20T15:19:11.178Z,32.85
2018-06-20T15:20:20.067Z,33.04
2018-06-20T15:21:28.945Z,33.14
2018-06-20T15:22:37.822Z,33.28
2018-06-20T15:23:46.854Z,33.38
2018-06-20T15:24:55.733Z,33.21
2018-06-20T15:26:04.625Z,32.72
2018-06-20T15:27:13.507Z,32.4
2018-06-20T15:28:22.386Z,32.37
2018-06-20T15:29:31.423Z,32.51
2018-06-20T15:30:40.308Z,32.74
2018-06-20T15:31:49.190Z,33.04
2018-06-20T15:32:58.075Z,32.99
2018-06-20T15:34:06.953Z,33.15
2018-06-20T15:35:15.885Z,33.29
2018-06-20T15:36:24.767Z,33.32
2018-06-20T15:37:33.671Z,33.53
2018-06-20T15:38:42.829Z,33.54